sensor_id;sensor_type;location;lat;lon;timestamp;P1;durP1;ratioP1;P2;durP2;ratioP2
11735;SDS011;5924;51.398;7.088;2022-08-18T00:02:06;37.90;;;33.37;;
11735;SDS011;5924;51.398;7.088;2022-08-18T00:04:37;40.43;;;32.40;;
11735;SDS011;5924;51.398;7.088;2022-08-18T00:07:04;40.30;;;33.47;;
11735;SDS011;5924;51.398;7.088;2022-08-18T00:09:31;39.67;;;33.43;;
11735;SDS011;5924;51.398;7.088;2022-08-18T00:11:59;36.77;;;31.27;;
11735;SDS011;5924;51.398;7.088;2022-08-18T00:14:27;33.93;;;29.50;;
11735;SDS011;5924;51.398;7.088;2022-08-18T00:16:53;33.33;;;29.77;;
11735;SDS011;5924;51.398;7.088;2022-08-18T00:19:19;49.23;;;39.33;;
11735;SDS011;5924;51.398;7.088;2022-08-18T00:21:46;42.70;;;35.20;;
11735;SDS011;5924;51.398;7.088;2022-08-18T00:24:12;49.83;;;37.77;;
11735;SDS011;5924;51.398;7.088;2022-08-18T00:26:37;38.07;;;32.93;;
11735;SDS011;5924;51.398;7.088;2022-08-18T00:29:03;46.40;;;36.17;;
11735;SDS011;5924;51.398;7.088;2022-08-18T00:31:29;34.93;;;30.20;;
11735;SDS011;5924;51.398;7.088;2022-08-18T00:33:55;33.90;;;29.47;;
11735;SDS011;5924;51.398;7.088;2022-08-18T00:36:21;35.97;;;31.47;;
11735;SDS011;5924;51.398;7.088;2022-08-18T00:38:46;40.93;;;34.10;;
11735;SDS011;5924;51.398;7.088;2022-08-18T00:41:12;41.20;;;35.17;;
11735;SDS011;5924;51.398;7.088;2022-08-18T00:43:56;41.67;;;32.70;;
11735;SDS011;5924;51.398;7.088;2022-08-18T00:46:29;31.57;;;28.13;;
11735;SDS011;5924;51.398;7.088;2022-08-18T00:48:57;31.53;;;28.23;;
11735;SDS011;5924;51.398;7.088;2022-08-18T00:51:28;37.00;;;31.10;;
11735;SDS011;5924;51.398;7.088;2022-08-18T00:56:30;44.90;;;35.33;;
11735;SDS011;5924;51.398;7.088;2022-08-18T00:59:06;42.53;;;35.20;;
11735;SDS011;5924;51.398;7.088;2022-08-18T01:01:52;43.50;;;34.77;;
11735;SDS011;5924;51.398;7.088;2022-08-18T01:04:40;39.07;;;32.73;;
11735;SDS011;5924;51.398;7.088;2022-08-18T01:07:20;49.07;;;36.53;;
11735;SDS011;5924;51.398;7.088;2022-08-18T01:09:50;55.80;;;39.37;;
11735;SDS011;5924;51.398;7.088;2022-08-18T01:12:16;45.47;;;35.77;;
11735;SDS011;5924;51.398;7.088;2022-08-18T01:14:43;53.80;;;40.17;;
11735;SDS011;5924;51.398;7.088;2022-08-18T01:17:10;61.60;;;43.23;;
11735;SDS011;5924;51.398;7.088;2022-08-18T01:19:54;55.47;;;41.57;;
11735;SDS011;5924;51.398;7.088;2022-08-18T01:25:15;50.77;;;36.00;;
11735;SDS011;5924;51.398;7.088;2022-08-18T01:28:02;53.57;;;38.07;;
11735;SDS011;5924;51.398;7.088;2022-08-18T01:30:29;43.23;;;34.70;;
11735;SDS011;5924;51.398;7.088;2022-08-18T01:32:56;52.40;;;38.30;;
11735;SDS011;5924;51.398;7.088;2022-08-18T01:35:23;49.87;;;37.57;;
11735;SDS011;5924;51.398;7.088;2022-08-18T01:37:54;49.73;;;38.60;;
11735;SDS011;5924;51.398;7.088;2022-08-18T01:40:20;53.33;;;38.27;;
11735;SDS011;5924;51.398;7.088;2022-08-18T01:42:48;48.50;;;35.00;;
11735;SDS011;5924;51.398;7.088;2022-08-18T01:45:15;55.83;;;41.40;;
11735;SDS011;5924;51.398;7.088;2022-08-18T01:47:42;55.83;;;41.23;;
11735;SDS011;5924;51.398;7.088;2022-08-18T01:50:09;65.53;;;45.50;;
11735;SDS011;5924;51.398;7.088;2022-08-18T01:52:36;84.00;;;53.17;;
11735;SDS011;5924;51.398;7.088;2022-08-18T01:55:02;66.50;;;44.33;;
11735;SDS011;5924;51.398;7.088;2022-08-18T01:57:29;60.60;;;41.23;;
11735;SDS011;5924;51.398;7.088;2022-08-18T01:59:54;55.73;;;39.93;;
11735;SDS011;5924;51.398;7.088;2022-08-18T02:02:25;60.60;;;42.40;;
11735;SDS011;5924;51.398;7.088;2022-08-18T02:04:54;63.17;;;43.03;;
11735;SDS011;5924;51.398;7.088;2022-08-18T02:07:26;71.70;;;47.57;;
11735;SDS011;5924;51.398;7.088;2022-08-18T02:09:52;63.73;;;41.30;;
11735;SDS011;5924;51.398;7.088;2022-08-18T02:12:18;64.63;;;40.30;;
11735;SDS011;5924;51.398;7.088;2022-08-18T02:14:44;82.97;;;48.10;;
11735;SDS011;5924;51.398;7.088;2022-08-18T02:17:11;87.57;;;46.87;;
11735;SDS011;5924;51.398;7.088;2022-08-18T02:19:41;110.90;;;57.23;;
11735;SDS011;5924;51.398;7.088;2022-08-18T02:22:09;83.97;;;47.63;;
11735;SDS011;5924;51.398;7.088;2022-08-18T02:24:37;97.27;;;50.80;;
11735;SDS011;5924;51.398;7.088;2022-08-18T02:27:03;89.27;;;49.93;;
11735;SDS011;5924;51.398;7.088;2022-08-18T02:29:29;95.57;;;50.37;;
11735;SDS011;5924;51.398;7.088;2022-08-18T02:31:55;100.80;;;54.03;;
11735;SDS011;5924;51.398;7.088;2022-08-18T02:34:21;104.73;;;53.40;;
11735;SDS011;5924;51.398;7.088;2022-08-18T02:36:46;108.20;;;55.53;;
11735;SDS011;5924;51.398;7.088;2022-08-18T02:39:12;101.67;;;51.43;;
11735;SDS011;5924;51.398;7.088;2022-08-18T02:41:38;104.87;;;55.07;;
11735;SDS011;5924;51.398;7.088;2022-08-18T02:44:05;133.53;;;66.83;;
11735;SDS011;5924;51.398;7.088;2022-08-18T02:46:32;122.70;;;61.40;;
11735;SDS011;5924;51.398;7.088;2022-08-18T02:48:58;124.80;;;61.53;;
11735;SDS011;5924;51.398;7.088;2022-08-18T02:51:24;132.40;;;66.17;;
11735;SDS011;5924;51.398;7.088;2022-08-18T02:53:50;126.53;;;61.30;;
11735;SDS011;5924;51.398;7.088;2022-08-18T02:56:17;112.57;;;57.57;;
11735;SDS011;5924;51.398;7.088;2022-08-18T02:58:45;136.53;;;64.47;;
11735;SDS011;5924;51.398;7.088;2022-08-18T03:01:12;116.20;;;59.67;;
11735;SDS011;5924;51.398;7.088;2022-08-18T03:03:37;105.00;;;55.93;;
11735;SDS011;5924;51.398;7.088;2022-08-18T03:06:03;128.60;;;65.50;;
11735;SDS011;5924;51.398;7.088;2022-08-18T03:08:30;101.07;;;52.00;;
11735;SDS011;5924;51.398;7.088;2022-08-18T03:10:56;128.40;;;65.97;;
11735;SDS011;5924;51.398;7.088;2022-08-18T03:13:22;134.13;;;65.13;;
11735;SDS011;5924;51.398;7.088;2022-08-18T03:15:47;153.77;;;74.77;;
11735;SDS011;5924;51.398;7.088;2022-08-18T03:18:13;158.17;;;73.40;;
11735;SDS011;5924;51.398;7.088;2022-08-18T03:20:39;166.63;;;76.10;;
11735;SDS011;5924;51.398;7.088;2022-08-18T03:23:08;161.27;;;74.03;;
11735;SDS011;5924;51.398;7.088;2022-08-18T03:25:33;151.70;;;72.07;;
11735;SDS011;5924;51.398;7.088;2022-08-18T03:28:01;138.40;;;67.30;;
11735;SDS011;5924;51.398;7.088;2022-08-18T03:30:28;152.50;;;70.23;;
11735;SDS011;5924;51.398;7.088;2022-08-18T03:32:53;133.93;;;64.87;;
11735;SDS011;5924;51.398;7.088;2022-08-18T03:35:19;134.07;;;63.10;;
11735;SDS011;5924;51.398;7.088;2022-08-18T03:37:44;116.40;;;59.17;;
11735;SDS011;5924;51.398;7.088;2022-08-18T03:40:10;111.27;;;57.60;;
11735;SDS011;5924;51.398;7.088;2022-08-18T03:42:36;123.37;;;61.13;;
11735;SDS011;5924;51.398;7.088;2022-08-18T03:45:03;123.50;;;60.00;;
11735;SDS011;5924;51.398;7.088;2022-08-18T03:47:30;123.63;;;59.10;;
11735;SDS011;5924;51.398;7.088;2022-08-18T03:49:56;116.90;;;60.27;;
11735;SDS011;5924;51.398;7.088;2022-08-18T03:52:21;124.40;;;59.20;;
11735;SDS011;5924;51.398;7.088;2022-08-18T03:54:47;135.40;;;62.77;;
11735;SDS011;5924;51.398;7.088;2022-08-18T03:57:13;127.60;;;60.87;;
11735;SDS011;5924;51.398;7.088;2022-08-18T03:59:39;152.47;;;68.47;;
11735;SDS011;5924;51.398;7.088;2022-08-18T04:02:08;158.63;;;68.93;;
11735;SDS011;5924;51.398;7.088;2022-08-18T04:04:34;186.73;;;76.67;;
11735;SDS011;5924;51.398;7.088;2022-08-18T04:07:02;169.47;;;75.10;;
11735;SDS011;5924;51.398;7.088;2022-08-18T04:09:35;174.53;;;71.73;;
11735;SDS011;5924;51.398;7.088;2022-08-18T04:12:03;172.70;;;73.13;;
11735;SDS011;5924;51.398;7.088;2022-08-18T04:14:36;151.37;;;63.27;;
11735;SDS011;5924;51.398;7.088;2022-08-18T04:17:04;167.73;;;67.73;;
11735;SDS011;5924;51.398;7.088;2022-08-18T04:19:30;154.67;;;66.30;;
11735;SDS011;5924;51.398;7.088;2022-08-18T04:21:59;177.37;;;69.40;;
11735;SDS011;5924;51.398;7.088;2022-08-18T04:24:27;149.63;;;60.57;;
11735;SDS011;5924;51.398;7.088;2022-08-18T04:26:54;153.37;;;62.80;;
11735;SDS011;5924;51.398;7.088;2022-08-18T04:29:21;175.73;;;68.70;;
11735;SDS011;5924;51.398;7.088;2022-08-18T04:31:48;191.97;;;68.77;;
11735;SDS011;5924;51.398;7.088;2022-08-18T04:34:15;182.40;;;69.50;;
11735;SDS011;5924;51.398;7.088;2022-08-18T04:36:42;205.00;;;74.00;;
11735;SDS011;5924;51.398;7.088;2022-08-18T04:39:09;212.97;;;72.57;;
11735;SDS011;5924;51.398;7.088;2022-08-18T04:41:37;184.57;;;63.10;;
11735;SDS011;5924;51.398;7.088;2022-08-18T04:44:05;189.33;;;65.53;;
11735;SDS011;5924;51.398;7.088;2022-08-18T04:46:36;201.80;;;70.87;;
11735;SDS011;5924;51.398;7.088;2022-08-18T04:49:05;184.70;;;64.93;;
11735;SDS011;5924;51.398;7.088;2022-08-18T04:51:33;202.93;;;73.00;;
11735;SDS011;5924;51.398;7.088;2022-08-18T04:53:59;186.90;;;68.77;;
11735;SDS011;5924;51.398;7.088;2022-08-18T04:58:57;199.13;;;70.47;;
11735;SDS011;5924;51.398;7.088;2022-08-18T05:01:26;175.10;;;63.70;;
11735;SDS011;5924;51.398;7.088;2022-08-18T05:03:57;197.67;;;69.50;;
11735;SDS011;5924;51.398;7.088;2022-08-18T05:06:23;204.00;;;69.10;;
11735;SDS011;5924;51.398;7.088;2022-08-18T05:08:51;190.27;;;69.53;;
11735;SDS011;5924;51.398;7.088;2022-08-18T05:11:18;188.93;;;64.93;;
11735;SDS011;5924;51.398;7.088;2022-08-18T05:13:45;169.57;;;60.63;;
11735;SDS011;5924;51.398;7.088;2022-08-18T05:16:12;168.40;;;62.87;;
11735;SDS011;5924;51.398;7.088;2022-08-18T05:18:38;185.27;;;64.80;;
11735;SDS011;5924;51.398;7.088;2022-08-18T05:21:04;188.67;;;65.77;;
11735;SDS011;5924;51.398;7.088;2022-08-18T05:23:38;157.37;;;60.63;;
11735;SDS011;5924;51.398;7.088;2022-08-18T05:26:06;121.43;;;50.50;;
11735;SDS011;5924;51.398;7.088;2022-08-18T05:28:32;141.97;;;56.57;;
11735;SDS011;5924;51.398;7.088;2022-08-18T05:31:21;156.83;;;59.20;;
11735;SDS011;5924;51.398;7.088;2022-08-18T05:33:49;133.10;;;51.53;;
11735;SDS011;5924;51.398;7.088;2022-08-18T05:41:26;148.93;;;58.50;;
11735;SDS011;5924;51.398;7.088;2022-08-18T05:43:57;129.33;;;53.17;;
11735;SDS011;5924;51.398;7.088;2022-08-18T05:46:31;128.83;;;54.97;;
11735;SDS011;5924;51.398;7.088;2022-08-18T05:49:06;135.40;;;54.40;;
11735;SDS011;5924;51.398;7.088;2022-08-18T05:51:38;107.07;;;47.93;;
11735;SDS011;5924;51.398;7.088;2022-08-18T05:54:07;96.33;;;46.50;;
11735;SDS011;5924;51.398;7.088;2022-08-18T05:56:57;97.90;;;45.83;;
11735;SDS011;5924;51.398;7.088;2022-08-18T05:59:30;125.07;;;55.00;;
11735;SDS011;5924;51.398;7.088;2022-08-18T06:05:14;95.13;;;47.37;;
11735;SDS011;5924;51.398;7.088;2022-08-18T06:10:17;88.43;;;44.00;;
11735;SDS011;5924;51.398;7.088;2022-08-18T06:12:48;109.27;;;51.00;;
11735;SDS011;5924;51.398;7.088;2022-08-18T06:20:29;102.80;;;50.10;;
11735;SDS011;5924;51.398;7.088;2022-08-18T06:23:23;98.47;;;48.97;;
11735;SDS011;5924;51.398;7.088;2022-08-18T06:28:52;104.90;;;50.03;;
11735;SDS011;5924;51.398;7.088;2022-08-18T06:40:25;99.00;;;47.80;;
11735;SDS011;5924;51.398;7.088;2022-08-18T06:42:51;108.03;;;52.57;;
11735;SDS011;5924;51.398;7.088;2022-08-18T06:45:17;99.73;;;48.53;;
11735;SDS011;5924;51.398;7.088;2022-08-18T06:47:51;112.80;;;53.77;;
11735;SDS011;5924;51.398;7.088;2022-08-18T06:50:31;91.63;;;47.40;;
11735;SDS011;5924;51.398;7.088;2022-08-18T06:53:03;112.43;;;52.80;;
11735;SDS011;5924;51.398;7.088;2022-08-18T06:55:32;87.47;;;46.03;;
11735;SDS011;5924;51.398;7.088;2022-08-18T06:58:01;108.27;;;50.80;;
11735;SDS011;5924;51.398;7.088;2022-08-18T07:00:32;118.20;;;52.80;;
11735;SDS011;5924;51.398;7.088;2022-08-18T07:03:06;110.23;;;51.17;;
11735;SDS011;5924;51.398;7.088;2022-08-18T07:05:35;126.80;;;57.40;;
11735;SDS011;5924;51.398;7.088;2022-08-18T07:10:53;128.40;;;54.83;;
11735;SDS011;5924;51.398;7.088;2022-08-18T07:15:47;88.67;;;45.10;;
11735;SDS011;5924;51.398;7.088;2022-08-18T07:18:14;128.73;;;56.30;;
11735;SDS011;5924;51.398;7.088;2022-08-18T07:20:46;96.33;;;46.20;;
11735;SDS011;5924;51.398;7.088;2022-08-18T07:23:22;130.70;;;55.57;;
11735;SDS011;5924;51.398;7.088;2022-08-18T07:26:02;126.30;;;52.97;;
11735;SDS011;5924;51.398;7.088;2022-08-18T07:28:38;129.30;;;56.57;;
11735;SDS011;5924;51.398;7.088;2022-08-18T07:34:09;123.67;;;56.90;;
11735;SDS011;5924;51.398;7.088;2022-08-18T07:42:29;105.10;;;51.87;;
11735;SDS011;5924;51.398;7.088;2022-08-18T07:44:59;104.13;;;50.90;;
11735;SDS011;5924;51.398;7.088;2022-08-18T07:47:37;95.37;;;49.37;;
11735;SDS011;5924;51.398;7.088;2022-08-18T07:50:17;109.17;;;53.60;;
11735;SDS011;5924;51.398;7.088;2022-08-18T07:52:50;103.83;;;51.60;;
11735;SDS011;5924;51.398;7.088;2022-08-18T07:55:42;100.57;;;50.90;;
11735;SDS011;5924;51.398;7.088;2022-08-18T08:01:03;97.17;;;50.90;;
11735;SDS011;5924;51.398;7.088;2022-08-18T08:14:46;74.67;;;41.77;;
11735;SDS011;5924;51.398;7.088;2022-08-18T08:33:55;76.10;;;45.50;;
11735;SDS011;5924;51.398;7.088;2022-08-18T08:36:30;83.33;;;49.20;;
11735;SDS011;5924;51.398;7.088;2022-08-18T08:39:04;70.73;;;46.33;;
11735;SDS011;5924;51.398;7.088;2022-08-18T08:44:17;65.07;;;41.60;;
11735;SDS011;5924;51.398;7.088;2022-08-18T08:46:56;62.37;;;39.80;;
11735;SDS011;5924;51.398;7.088;2022-08-18T08:49:38;60.37;;;39.53;;
11735;SDS011;5924;51.398;7.088;2022-08-18T08:52:17;62.70;;;39.07;;
11735;SDS011;5924;51.398;7.088;2022-08-18T08:54:47;59.90;;;39.97;;
11735;SDS011;5924;51.398;7.088;2022-08-18T08:57:35;63.57;;;39.17;;
11735;SDS011;5924;51.398;7.088;2022-08-18T09:00:24;58.13;;;38.20;;
11735;SDS011;5924;51.398;7.088;2022-08-18T09:08:20;51.40;;;36.60;;
11735;SDS011;5924;51.398;7.088;2022-08-18T09:25:00;53.27;;;37.40;;
11735;SDS011;5924;51.398;7.088;2022-08-18T09:27:31;57.70;;;38.87;;
11735;SDS011;5924;51.398;7.088;2022-08-18T09:30:06;69.57;;;42.97;;
11735;SDS011;5924;51.398;7.088;2022-08-18T09:32:56;59.53;;;40.50;;
11735;SDS011;5924;51.398;7.088;2022-08-18T09:38:35;62.23;;;41.93;;
11735;SDS011;5924;51.398;7.088;2022-08-18T09:41:32;50.20;;;35.67;;
11735;SDS011;5924;51.398;7.088;2022-08-18T09:44:11;52.23;;;36.50;;
11735;SDS011;5924;51.398;7.088;2022-08-18T09:51:57;60.20;;;41.50;;
11735;SDS011;5924;51.398;7.088;2022-08-18T09:54:25;52.50;;;36.07;;
11735;SDS011;5924;51.398;7.088;2022-08-18T10:01:56;50.00;;;38.20;;
11735;SDS011;5924;51.398;7.088;2022-08-18T10:28:56;58.73;;;39.00;;
11735;SDS011;5924;51.398;7.088;2022-08-18T10:37:16;56.23;;;41.40;;
11735;SDS011;5924;51.398;7.088;2022-08-18T10:39:56;64.43;;;41.47;;
11735;SDS011;5924;51.398;7.088;2022-08-18T10:42:34;64.20;;;43.30;;
11735;SDS011;5924;51.398;7.088;2022-08-18T10:45:07;51.37;;;38.97;;
11735;SDS011;5924;51.398;7.088;2022-08-18T10:47:34;55.80;;;41.43;;
11735;SDS011;5924;51.398;7.088;2022-08-18T10:50:04;50.23;;;36.97;;
11735;SDS011;5924;51.398;7.088;2022-08-18T11:01:23;49.40;;;37.70;;
11735;SDS011;5924;51.398;7.088;2022-08-18T11:06:50;46.17;;;37.17;;
11735;SDS011;5924;51.398;7.088;2022-08-18T11:09:26;48.73;;;37.13;;
11735;SDS011;5924;51.398;7.088;2022-08-18T11:11:54;36.50;;;30.13;;
11735;SDS011;5924;51.398;7.088;2022-08-18T11:19:53;41.07;;;33.50;;
11735;SDS011;5924;51.398;7.088;2022-08-18T11:24:48;39.10;;;34.00;;
11735;SDS011;5924;51.398;7.088;2022-08-18T11:27:17;47.77;;;37.10;;
11735;SDS011;5924;51.398;7.088;2022-08-18T11:29:45;42.20;;;33.70;;
11735;SDS011;5924;51.398;7.088;2022-08-18T11:32:25;46.30;;;37.80;;
11735;SDS011;5924;51.398;7.088;2022-08-18T11:40:00;44.30;;;35.17;;
11735;SDS011;5924;51.398;7.088;2022-08-18T11:42:31;42.10;;;34.70;;
11735;SDS011;5924;51.398;7.088;2022-08-18T11:45:05;49.40;;;36.20;;
11735;SDS011;5924;51.398;7.088;2022-08-18T11:47:58;46.13;;;37.60;;
11735;SDS011;5924;51.398;7.088;2022-08-18T11:50:28;47.23;;;38.90;;
11735;SDS011;5924;51.398;7.088;2022-08-18T11:53:01;48.30;;;40.40;;
11735;SDS011;5924;51.398;7.088;2022-08-18T11:55:45;52.43;;;41.60;;
11735;SDS011;5924;51.398;7.088;2022-08-18T11:58:43;50.17;;;37.70;;
11735;SDS011;5924;51.398;7.088;2022-08-18T12:12:42;35.40;;;29.40;;
11735;SDS011;5924;51.398;7.088;2022-08-18T12:17:36;33.83;;;25.50;;
11735;SDS011;5924;51.398;7.088;2022-08-18T12:20:01;28.27;;;21.77;;
11735;SDS011;5924;51.398;7.088;2022-08-18T12:22:30;23.23;;;20.77;;
11735;SDS011;5924;51.398;7.088;2022-08-18T12:24:56;22.40;;;19.20;;
11735;SDS011;5924;51.398;7.088;2022-08-18T12:27:23;19.20;;;17.23;;
11735;SDS011;5924;51.398;7.088;2022-08-18T12:29:50;22.43;;;18.43;;
11735;SDS011;5924;51.398;7.088;2022-08-18T12:32:17;16.53;;;15.13;;
11735;SDS011;5924;51.398;7.088;2022-08-18T12:34:44;20.00;;;17.80;;
11735;SDS011;5924;51.398;7.088;2022-08-18T12:37:11;20.27;;;18.20;;
11735;SDS011;5924;51.398;7.088;2022-08-18T12:39:41;24.20;;;21.73;;
11735;SDS011;5924;51.398;7.088;2022-08-18T12:42:07;23.03;;;20.80;;
11735;SDS011;5924;51.398;7.088;2022-08-18T12:44:33;22.80;;;20.40;;
11735;SDS011;5924;51.398;7.088;2022-08-18T12:47:02;21.10;;;19.00;;
11735;SDS011;5924;51.398;7.088;2022-08-18T12:49:31;19.50;;;17.90;;
11735;SDS011;5924;51.398;7.088;2022-08-18T12:51:57;27.20;;;23.43;;
11735;SDS011;5924;51.398;7.088;2022-08-18T12:54:23;25.13;;;22.70;;
11735;SDS011;5924;51.398;7.088;2022-08-18T12:56:50;25.73;;;18.70;;
11735;SDS011;5924;51.398;7.088;2022-08-18T12:59:18;20.10;;;18.20;;
11735;SDS011;5924;51.398;7.088;2022-08-18T13:01:44;23.57;;;21.23;;
11735;SDS011;5924;51.398;7.088;2022-08-18T13:04:10;23.07;;;19.90;;
11735;SDS011;5924;51.398;7.088;2022-08-18T13:06:37;20.07;;;18.33;;
11735;SDS011;5924;51.398;7.088;2022-08-18T13:09:05;21.57;;;19.43;;
11735;SDS011;5924;51.398;7.088;2022-08-18T13:11:31;18.53;;;16.90;;
11735;SDS011;5924;51.398;7.088;2022-08-18T13:13:57;14.43;;;13.20;;
11735;SDS011;5924;51.398;7.088;2022-08-18T13:16:23;12.77;;;11.67;;
11735;SDS011;5924;51.398;7.088;2022-08-18T13:18:50;13.53;;;12.43;;
11735;SDS011;5924;51.398;7.088;2022-08-18T13:21:16;15.00;;;12.67;;
11735;SDS011;5924;51.398;7.088;2022-08-18T13:23:42;14.20;;;13.10;;
11735;SDS011;5924;51.398;7.088;2022-08-18T13:26:12;13.83;;;12.83;;
11735;SDS011;5924;51.398;7.088;2022-08-18T13:28:45;12.23;;;11.43;;
11735;SDS011;5924;51.398;7.088;2022-08-18T13:31:10;12.20;;;11.40;;
11735;SDS011;5924;51.398;7.088;2022-08-18T13:33:36;12.17;;;11.37;;
11735;SDS011;5924;51.398;7.088;2022-08-18T13:36:04;11.60;;;10.93;;
11735;SDS011;5924;51.398;7.088;2022-08-18T13:38:30;12.83;;;11.93;;
11735;SDS011;5924;51.398;7.088;2022-08-18T13:40:56;12.03;;;11.13;;
11735;SDS011;5924;51.398;7.088;2022-08-18T13:43:31;11.80;;;11.00;;
11735;SDS011;5924;51.398;7.088;2022-08-18T13:46:00;12.43;;;11.23;;
11735;SDS011;5924;51.398;7.088;2022-08-18T13:48:27;13.23;;;12.07;;
11735;SDS011;5924;51.398;7.088;2022-08-18T13:50:54;13.27;;;11.90;;
11735;SDS011;5924;51.398;7.088;2022-08-18T13:53:22;12.27;;;11.33;;
11735;SDS011;5924;51.398;7.088;2022-08-18T13:55:50;13.90;;;12.83;;
11735;SDS011;5924;51.398;7.088;2022-08-18T13:58:16;12.40;;;11.40;;
11735;SDS011;5924;51.398;7.088;2022-08-18T14:00:42;13.07;;;11.70;;
11735;SDS011;5924;51.398;7.088;2022-08-18T14:03:09;13.37;;;12.37;;
11735;SDS011;5924;51.398;7.088;2022-08-18T14:05:36;11.67;;;10.97;;
11735;SDS011;5924;51.398;7.088;2022-08-18T14:08:02;10.67;;;10.10;;
11735;SDS011;5924;51.398;7.088;2022-08-18T14:10:29;13.13;;;12.20;;
11735;SDS011;5924;51.398;7.088;2022-08-18T14:12:56;11.27;;;10.67;;
11735;SDS011;5924;51.398;7.088;2022-08-18T14:15:24;11.40;;;10.60;;
11735;SDS011;5924;51.398;7.088;2022-08-18T14:17:49;11.60;;;10.80;;
11735;SDS011;5924;51.398;7.088;2022-08-18T14:20:15;11.63;;;10.93;;
11735;SDS011;5924;51.398;7.088;2022-08-18T14:23:00;11.37;;;10.50;;
11735;SDS011;5924;51.398;7.088;2022-08-18T14:25:45;10.50;;;9.77;;
11735;SDS011;5924;51.398;7.088;2022-08-18T14:28:30;11.63;;;9.90;;
11735;SDS011;5924;51.398;7.088;2022-08-18T14:30:57;10.43;;;9.70;;
11735;SDS011;5924;51.398;7.088;2022-08-18T14:33:25;9.20;;;8.70;;
11735;SDS011;5924;51.398;7.088;2022-08-18T14:35:51;8.80;;;8.40;;
11735;SDS011;5924;51.398;7.088;2022-08-18T14:38:18;11.27;;;10.43;;
11735;SDS011;5924;51.398;7.088;2022-08-18T14:40:44;9.13;;;8.73;;
11735;SDS011;5924;51.398;7.088;2022-08-18T14:43:11;9.93;;;9.43;;
11735;SDS011;5924;51.398;7.088;2022-08-18T14:45:39;9.73;;;9.23;;
11735;SDS011;5924;51.398;7.088;2022-08-18T14:48:12;9.90;;;9.20;;
11735;SDS011;5924;51.398;7.088;2022-08-18T14:50:40;9.43;;;8.73;;
11735;SDS011;5924;51.398;7.088;2022-08-18T14:53:08;8.70;;;8.13;;
11735;SDS011;5924;51.398;7.088;2022-08-18T14:55:34;9.53;;;8.83;;
11735;SDS011;5924;51.398;7.088;2022-08-18T14:58:02;9.10;;;8.70;;
11735;SDS011;5924;51.398;7.088;2022-08-18T15:00:28;7.60;;;7.30;;
11735;SDS011;5924;51.398;7.088;2022-08-18T15:02:54;7.40;;;7.10;;
11735;SDS011;5924;51.398;7.088;2022-08-18T15:05:21;6.90;;;6.70;;
11735;SDS011;5924;51.398;7.088;2022-08-18T15:07:47;7.53;;;7.23;;
11735;SDS011;5924;51.398;7.088;2022-08-18T15:10:13;6.93;;;6.63;;
11735;SDS011;5924;51.398;7.088;2022-08-18T15:12:40;6.70;;;6.50;;
11735;SDS011;5924;51.398;7.088;2022-08-18T15:15:06;7.40;;;7.10;;
11735;SDS011;5924;51.398;7.088;2022-08-18T15:17:36;7.07;;;6.70;;
11735;SDS011;5924;51.398;7.088;2022-08-18T15:20:03;6.83;;;6.40;;
11735;SDS011;5924;51.398;7.088;2022-08-18T15:22:30;6.93;;;6.63;;
11735;SDS011;5924;51.398;7.088;2022-08-18T15:25:15;7.93;;;6.67;;
11735;SDS011;5924;51.398;7.088;2022-08-18T15:27:59;6.27;;;5.97;;
11735;SDS011;5924;51.398;7.088;2022-08-18T15:30:26;5.33;;;5.03;;
11735;SDS011;5924;51.398;7.088;2022-08-18T15:32:51;6.07;;;5.90;;
11735;SDS011;5924;51.398;7.088;2022-08-18T15:35:17;6.23;;;5.93;;
11735;SDS011;5924;51.398;7.088;2022-08-18T15:37:44;6.43;;;6.23;;
11735;SDS011;5924;51.398;7.088;2022-08-18T15:40:16;6.20;;;5.90;;
11735;SDS011;5924;51.398;7.088;2022-08-18T15:42:52;6.10;;;5.90;;
11735;SDS011;5924;51.398;7.088;2022-08-18T15:45:25;5.83;;;5.63;;
11735;SDS011;5924;51.398;7.088;2022-08-18T15:47:56;5.97;;;5.70;;
11735;SDS011;5924;51.398;7.088;2022-08-18T15:50:22;5.77;;;5.40;;
11735;SDS011;5924;51.398;7.088;2022-08-18T15:52:49;6.70;;;6.30;;
11735;SDS011;5924;51.398;7.088;2022-08-18T15:55:23;5.80;;;5.60;;
11735;SDS011;5924;51.398;7.088;2022-08-18T15:57:51;6.17;;;5.87;;
11735;SDS011;5924;51.398;7.088;2022-08-18T16:00:18;6.10;;;5.80;;
11735;SDS011;5924;51.398;7.088;2022-08-18T16:02:51;6.43;;;6.03;;
11735;SDS011;5924;51.398;7.088;2022-08-18T16:05:21;6.30;;;6.00;;
11735;SDS011;5924;51.398;7.088;2022-08-18T16:07:49;5.70;;;5.60;;
11735;SDS011;5924;51.398;7.088;2022-08-18T16:10:18;5.87;;;5.57;;
11735;SDS011;5924;51.398;7.088;2022-08-18T16:12:45;5.80;;;5.50;;
11735;SDS011;5924;51.398;7.088;2022-08-18T16:15:12;6.40;;;6.20;;
11735;SDS011;5924;51.398;7.088;2022-08-18T16:17:42;6.60;;;6.00;;
11735;SDS011;5924;51.398;7.088;2022-08-18T16:20:09;6.70;;;6.30;;
11735;SDS011;5924;51.398;7.088;2022-08-18T16:22:35;6.50;;;6.20;;
11735;SDS011;5924;51.398;7.088;2022-08-18T16:25:06;6.10;;;5.70;;
11735;SDS011;5924;51.398;7.088;2022-08-18T16:27:33;6.47;;;5.87;;
11735;SDS011;5924;51.398;7.088;2022-08-18T16:30:00;6.70;;;6.27;;
11735;SDS011;5924;51.398;7.088;2022-08-18T16:32:28;6.30;;;6.10;;
11735;SDS011;5924;51.398;7.088;2022-08-18T16:34:55;7.30;;;6.70;;
11735;SDS011;5924;51.398;7.088;2022-08-18T16:37:21;6.33;;;6.10;;
11735;SDS011;5924;51.398;7.088;2022-08-18T16:39:47;6.30;;;6.00;;
11735;SDS011;5924;51.398;7.088;2022-08-18T16:42:13;6.70;;;6.40;;
11735;SDS011;5924;51.398;7.088;2022-08-18T16:44:39;6.33;;;6.03;;
11735;SDS011;5924;51.398;7.088;2022-08-18T16:47:05;7.73;;;7.10;;
11735;SDS011;5924;51.398;7.088;2022-08-18T16:49:31;6.70;;;6.30;;
11735;SDS011;5924;51.398;7.088;2022-08-18T16:51:58;6.50;;;6.17;;
11735;SDS011;5924;51.398;7.088;2022-08-18T16:54:26;6.20;;;5.80;;
11735;SDS011;5924;51.398;7.088;2022-08-18T16:56:52;5.40;;;5.20;;
11735;SDS011;5924;51.398;7.088;2022-08-18T16:59:18;6.17;;;5.87;;
11735;SDS011;5924;51.398;7.088;2022-08-18T17:02:02;6.30;;;6.00;;
11735;SDS011;5924;51.398;7.088;2022-08-18T17:04:47;5.27;;;5.07;;
11735;SDS011;5924;51.398;7.088;2022-08-18T17:07:15;5.50;;;5.30;;
11735;SDS011;5924;51.398;7.088;2022-08-18T17:09:40;5.33;;;5.13;;
11735;SDS011;5924;51.398;7.088;2022-08-18T17:12:06;5.63;;;5.23;;
11735;SDS011;5924;51.398;7.088;2022-08-18T17:14:32;5.27;;;4.97;;
11735;SDS011;5924;51.398;7.088;2022-08-18T17:16:59;4.97;;;4.73;;
11735;SDS011;5924;51.398;7.088;2022-08-18T17:19:26;5.90;;;5.70;;
11735;SDS011;5924;51.398;7.088;2022-08-18T17:21:58;5.90;;;5.60;;
11735;SDS011;5924;51.398;7.088;2022-08-18T17:24:27;5.13;;;4.93;;
11735;SDS011;5924;51.398;7.088;2022-08-18T17:26:59;5.63;;;5.43;;
11735;SDS011;5924;51.398;7.088;2022-08-18T17:37:51;5.50;;;5.20;;
11735;SDS011;5924;51.398;7.088;2022-08-18T17:40:28;5.97;;;5.20;;
11735;SDS011;5924;51.398;7.088;2022-08-18T17:42:57;5.60;;;5.30;;
11735;SDS011;5924;51.398;7.088;2022-08-18T17:45:23;6.50;;;6.20;;
11735;SDS011;5924;51.398;7.088;2022-08-18T17:50:33;6.93;;;6.40;;
11735;SDS011;5924;51.398;7.088;2022-08-18T17:53:22;6.03;;;5.83;;
11735;SDS011;5924;51.398;7.088;2022-08-18T17:55:57;6.13;;;5.90;;
11735;SDS011;5924;51.398;7.088;2022-08-18T17:58:33;7.03;;;6.63;;
11735;SDS011;5924;51.398;7.088;2022-08-18T18:01:04;6.73;;;6.37;;
11735;SDS011;5924;51.398;7.088;2022-08-18T18:03:33;6.50;;;6.10;;
11735;SDS011;5924;51.398;7.088;2022-08-18T18:06:42;6.20;;;5.90;;
11735;SDS011;5924;51.398;7.088;2022-08-18T18:09:28;5.83;;;5.63;;